sensor_id;sensor_type;location;lat;lon;timestamp;pressure;altitude;pressure_sealevel;temperature;humidity
1832;BME280;1680;48.106;11.708;2023-03-23T00:00:18;95054.81;;;9.74;82.02
1832;BME280;1680;48.106;11.708;2023-03-23T00:02:46;95070.53;;;9.74;82.22
1832;BME280;1680;48.106;11.708;2023-03-23T00:05:14;95066.66;;;9.77;82.43
1832;BME280;1680;48.106;11.708;2023-03-23T00:07:41;95070.19;;;9.71;82.40
1832;BME280;1680;48.106;11.708;2023-03-23T00:10:10;95074.03;;;9.68;82.96
1832;BME280;1680;48.106;11.708;2023-03-23T00:12:39;95069.38;;;9.70;82.91
1832;BME280;1680;48.106;11.708;2023-03-23T00:15:08;95047.53;;;9.54;83.17
1832;BME280;1680;48.106;11.708;2023-03-23T00:17:38;95075.88;;;9.68;83.45
1832;BME280;1680;48.106;11.708;2023-03-23T00:20:07;95072.69;;;9.66;83.63
1832;BME280;1680;48.106;11.708;2023-03-23T00:22:37;95064.38;;;9.69;83.77
1832;BME280;1680;48.106;11.708;2023-03-23T00:25:07;95005.22;;;9.34;83.46
1832;BME280;1680;48.106;11.708;2023-03-23T00:27:34;95063.81;;;9.67;83.69
1832;BME280;1680;48.106;11.708;2023-03-23T00:30:04;95069.03;;;9.67;83.95
1832;BME280;1680;48.106;11.708;2023-03-23T00:32:32;95066.53;;;9.61;84.28
1832;BME280;1680;48.106;11.708;2023-03-23T00:34:59;95067.34;;;9.72;83.69
1832;BME280;1680;48.106;11.708;2023-03-23T00:37:27;95055.16;;;9.55;85.04
1832;BME280;1680;48.106;11.708;2023-03-23T00:39:54;95070.75;;;9.62;84.53
1832;BME280;1680;48.106;11.708;2023-03-23T00:42:23;95049.81;;;9.62;84.26
1832;BME280;1680;48.106;11.708;2023-03-23T00:44:52;95050.59;;;9.62;84.78
1832;BME280;1680;48.106;11.708;2023-03-23T00:47:26;95060.72;;;9.59;85.39
1832;BME280;1680;48.106;11.708;2023-03-23T00:49:55;95060.50;;;9.49;84.99
1832;BME280;1680;48.106;11.708;2023-03-23T00:52:22;95061.88;;;9.63;84.50
1832;BME280;1680;48.106;11.708;2023-03-23T00:54:50;95059.13;;;9.58;84.48
1832;BME280;1680;48.106;11.708;2023-03-23T00:57:18;95057.09;;;9.60;84.93
1832;BME280;1680;48.106;11.708;2023-03-23T00:59:45;95051.88;;;9.60;84.61
1832;BME280;1680;48.106;11.708;2023-03-23T01:02:12;95056.09;;;9.72;84.29
1832;BME280;1680;48.106;11.708;2023-03-23T01:04:41;95050.47;;;9.68;84.76
1832;BME280;1680;48.106;11.708;2023-03-23T01:07:10;95058.91;;;9.70;84.23
1832;BME280;1680;48.106;11.708;2023-03-23T01:09:38;95052.19;;;9.63;85.30
1832;BME280;1680;48.106;11.708;2023-03-23T01:12:10;95046.63;;;9.60;85.42
1832;BME280;1680;48.106;11.708;2023-03-23T01:14:37;95050.16;;;9.65;84.98
1832;BME280;1680;48.106;11.708;2023-03-23T01:17:05;95043.09;;;9.65;84.92
1832;BME280;1680;48.106;11.708;2023-03-23T01:19:32;95050.47;;;9.68;84.96
1832;BME280;1680;48.106;11.708;2023-03-23T01:22:01;95047.66;;;9.59;85.00
1832;BME280;1680;48.106;11.708;2023-03-23T01:24:28;95039.91;;;9.63;85.32
1832;BME280;1680;48.106;11.708;2023-03-23T01:26:57;95040.00;;;9.68;85.59
1832;BME280;1680;48.106;11.708;2023-03-23T01:29:27;95037.75;;;9.61;85.70
1832;BME280;1680;48.106;11.708;2023-03-23T01:31:54;95036.41;;;9.58;85.53
1832;BME280;1680;48.106;11.708;2023-03-23T01:34:21;95035.25;;;9.65;86.12
1832;BME280;1680;48.106;11.708;2023-03-23T01:36:48;95035.91;;;9.72;85.65
1832;BME280;1680;48.106;11.708;2023-03-23T01:39:17;95026.59;;;9.65;86.30
1832;BME280;1680;48.106;11.708;2023-03-23T01:41:44;95034.09;;;9.62;86.08
1832;BME280;1680;48.106;11.708;2023-03-23T01:47:12;95024.78;;;9.65;86.21
1832;BME280;1680;48.106;11.708;2023-03-23T01:49:42;95028.44;;;9.64;86.58
1832;BME280;1680;48.106;11.708;2023-03-23T01:52:14;95036.94;;;9.60;87.07
1832;BME280;1680;48.106;11.708;2023-03-23T01:54:45;95031.25;;;9.63;86.58
1832;BME280;1680;48.106;11.708;2023-03-23T01:57:15;95026.47;;;9.60;86.85
1832;BME280;1680;48.106;11.708;2023-03-23T01:59:45;95035.47;;;9.53;87.29
1832;BME280;1680;48.106;11.708;2023-03-23T02:02:14;95007.34;;;9.37;87.43
1832;BME280;1680;48.106;11.708;2023-03-23T02:08:04;95040.25;;;9.56;86.51
1832;BME280;1680;48.106;11.708;2023-03-23T02:10:36;95050.03;;;9.49;87.99
1832;BME280;1680;48.106;11.708;2023-03-23T02:13:07;95031.16;;;9.47;87.94
1832;BME280;1680;48.106;11.708;2023-03-23T02:15:45;95038.44;;;9.45;88.00
1832;BME280;1680;48.106;11.708;2023-03-23T02:18:29;95030.34;;;9.46;88.33
1832;BME280;1680;48.106;11.708;2023-03-23T02:21:16;95032.38;;;9.44;88.40
1832;BME280;1680;48.106;11.708;2023-03-23T02:24:03;95037.84;;;9.43;88.75
1832;BME280;1680;48.106;11.708;2023-03-23T02:26:47;94996.44;;;9.17;89.01
1832;BME280;1680;48.106;11.708;2023-03-23T02:29:47;95021.56;;;9.41;89.07
1832;BME280;1680;48.106;11.708;2023-03-23T02:32:39;95021.38;;;9.42;88.50
1832;BME280;1680;48.106;11.708;2023-03-23T02:35:18;95028.84;;;9.39;89.39
1832;BME280;1680;48.106;11.708;2023-03-23T02:37:49;95019.09;;;9.46;88.40
1832;BME280;1680;48.106;11.708;2023-03-23T02:40:21;95014.19;;;9.38;89.91
1832;BME280;1680;48.106;11.708;2023-03-23T02:42:54;95021.25;;;9.37;89.92
1832;BME280;1680;48.106;11.708;2023-03-23T02:45:23;95019.75;;;9.30;90.85
1832;BME280;1680;48.106;11.708;2023-03-23T02:47:55;95019.88;;;9.35;90.42
1832;BME280;1680;48.106;11.708;2023-03-23T02:50:25;95016.13;;;9.31;91.11
1832;BME280;1680;48.106;11.708;2023-03-23T02:52:55;95019.75;;;9.30;91.02
1832;BME280;1680;48.106;11.708;2023-03-23T02:55:24;95017.47;;;9.33;89.94
1832;BME280;1680;48.106;11.708;2023-03-23T02:57:54;94997.56;;;9.09;90.67
1832;BME280;1680;48.106;11.708;2023-03-23T03:00:22;95016.69;;;9.33;90.25
1832;BME280;1680;48.106;11.708;2023-03-23T03:02:50;95017.00;;;9.25;90.89
1832;BME280;1680;48.106;11.708;2023-03-23T03:05:30;94998.34;;;9.10;91.53
1832;BME280;1680;48.106;11.708;2023-03-23T03:08:17;95013.94;;;9.16;91.53
1832;BME280;1680;48.106;11.708;2023-03-23T03:10:53;95019.41;;;9.15;91.98
1832;BME280;1680;48.106;11.708;2023-03-23T03:13:31;95022.03;;;9.15;91.88
1832;BME280;1680;48.106;11.708;2023-03-23T03:16:04;95017.94;;;9.19;91.78
1832;BME280;1680;48.106;11.708;2023-03-23T03:18:38;95020.28;;;9.09;92.24
1832;BME280;1680;48.106;11.708;2023-03-23T03:21:09;94985.34;;;8.92;92.23
1832;BME280;1680;48.106;11.708;2023-03-23T03:23:40;95011.88;;;9.07;92.16
1832;BME280;1680;48.106;11.708;2023-03-23T03:26:11;95012.34;;;9.04;92.72
1832;BME280;1680;48.106;11.708;2023-03-23T03:28:43;95009.13;;;8.90;93.29
1832;BME280;1680;48.106;11.708;2023-03-23T03:31:15;95021.53;;;8.95;93.78
1832;BME280;1680;48.106;11.708;2023-03-23T03:33:44;95016.66;;;8.98;93.82
1832;BME280;1680;48.106;11.708;2023-03-23T03:36:18;95018.22;;;8.99;94.01
1832;BME280;1680;48.106;11.708;2023-03-23T03:38:48;95014.50;;;9.07;93.56
1832;BME280;1680;48.106;11.708;2023-03-23T03:41:17;95010.97;;;9.01;93.13
1832;BME280;1680;48.106;11.708;2023-03-23T03:43:45;95008.78;;;8.87;94.37
1832;BME280;1680;48.106;11.708;2023-03-23T03:46:13;95011.75;;;8.90;94.28
1832;BME280;1680;48.106;11.708;2023-03-23T03:48:40;95016.19;;;8.90;94.47
1832;BME280;1680;48.106;11.708;2023-03-23T03:51:07;95013.69;;;8.95;93.82
1832;BME280;1680;48.106;11.708;2023-03-23T03:53:36;95017.66;;;8.86;95.42
1832;BME280;1680;48.106;11.708;2023-03-23T03:56:04;95023.06;;;8.73;95.70
1832;BME280;1680;48.106;11.708;2023-03-23T03:58:32;95026.28;;;8.75;95.36
1832;BME280;1680;48.106;11.708;2023-03-23T04:01:01;95043.53;;;8.76;95.61
1832;BME280;1680;48.106;11.708;2023-03-23T04:03:29;95021.66;;;8.59;96.41
1832;BME280;1680;48.106;11.708;2023-03-23T04:05:57;95021.56;;;8.66;97.03
1832;BME280;1680;48.106;11.708;2023-03-23T04:08:25;95033.09;;;8.76;95.42
1832;BME280;1680;48.106;11.708;2023-03-23T04:10:54;95030.25;;;8.77;95.42
1832;BME280;1680;48.106;11.708;2023-03-23T04:13:22;95027.16;;;8.69;94.82
1832;BME280;1680;48.106;11.708;2023-03-23T04:15:49;95041.84;;;8.81;95.03
1832;BME280;1680;48.106;11.708;2023-03-23T04:18:16;95045.13;;;8.77;95.30
1832;BME280;1680;48.106;11.708;2023-03-23T04:20:45;95036.00;;;8.68;95.27
1832;BME280;1680;48.106;11.708;2023-03-23T04:23:14;95041.47;;;8.78;95.25
1832;BME280;1680;48.106;11.708;2023-03-23T04:25:45;95031.94;;;8.72;95.35
1832;BME280;1680;48.106;11.708;2023-03-23T04:28:14;95033.88;;;8.76;94.93
1832;BME280;1680;48.106;11.708;2023-03-23T04:30:42;95047.47;;;8.67;96.37
1832;BME280;1680;48.106;11.708;2023-03-23T04:33:10;95050.53;;;8.64;96.36
1832;BME280;1680;48.106;11.708;2023-03-23T04:35:40;95053.28;;;8.69;96.26
1832;BME280;1680;48.106;11.708;2023-03-23T04:38:08;95049.66;;;8.70;96.29
1832;BME280;1680;48.106;11.708;2023-03-23T04:40:36;95053.97;;;8.65;96.60
1832;BME280;1680;48.106;11.708;2023-03-23T04:43:04;95054.75;;;8.65;95.60
1832;BME280;1680;48.106;11.708;2023-03-23T04:45:35;95059.53;;;8.68;96.60
1832;BME280;1680;48.106;11.708;2023-03-23T04:48:07;95066.13;;;8.70;96.20
1832;BME280;1680;48.106;11.708;2023-03-23T04:50:35;95056.47;;;8.71;96.89
1832;BME280;1680;48.106;11.708;2023-03-23T04:53:04;95059.66;;;8.73;97.13
1832;BME280;1680;48.106;11.708;2023-03-23T04:55:32;95054.44;;;8.73;97.01
1832;BME280;1680;48.106;11.708;2023-03-23T04:58:01;95058.19;;;8.77;97.02
1832;BME280;1680;48.106;11.708;2023-03-23T05:00:28;95057.16;;;8.78;96.61
1832;BME280;1680;48.106;11.708;2023-03-23T05:02:57;95052.53;;;8.80;97.51
1832;BME280;1680;48.106;11.708;2023-03-23T05:05:26;95055.13;;;8.80;97.00
1832;BME280;1680;48.106;11.708;2023-03-23T05:07:55;95058.19;;;8.77;97.28
1832;BME280;1680;48.106;11.708;2023-03-23T05:10:23;95051.81;;;8.73;97.38
1832;BME280;1680;48.106;11.708;2023-03-23T05:12:52;95053.53;;;8.79;97.40
1832;BME280;1680;48.106;11.708;2023-03-23T05:15:20;95064.28;;;8.89;96.58
1832;BME280;1680;48.106;11.708;2023-03-23T05:17:47;95065.50;;;8.86;97.06
1832;BME280;1680;48.106;11.708;2023-03-23T05:20:17;95063.59;;;8.93;96.87
1832;BME280;1680;48.106;11.708;2023-03-23T05:22:45;95051.69;;;8.97;96.97
1832;BME280;1680;48.106;11.708;2023-03-23T05:25:15;95049.50;;;8.94;96.18
1832;BME280;1680;48.106;11.708;2023-03-23T05:27:44;95034.50;;;8.90;96.04
1832;BME280;1680;48.106;11.708;2023-03-23T05:30:15;95071.47;;;9.05;96.14
1832;BME280;1680;48.106;11.708;2023-03-23T05:32:42;95066.72;;;9.13;96.44
1832;BME280;1680;48.106;11.708;2023-03-23T05:35:10;95066.16;;;9.23;95.34
1832;BME280;1680;48.106;11.708;2023-03-23T05:37:39;95078.09;;;9.19;95.51
1832;BME280;1680;48.106;11.708;2023-03-23T05:40:07;95085.28;;;9.23;95.46
1832;BME280;1680;48.106;11.708;2023-03-23T05:42:35;95086.88;;;9.24;95.47
1832;BME280;1680;48.106;11.708;2023-03-23T05:45:03;95091.44;;;9.29;95.32
1832;BME280;1680;48.106;11.708;2023-03-23T05:47:31;95091.44;;;9.29;95.82
1832;BME280;1680;48.106;11.708;2023-03-23T05:49:58;95068.66;;;9.18;94.98
1832;BME280;1680;48.106;11.708;2023-03-23T05:52:26;95097.38;;;9.36;95.39
1832;BME280;1680;48.106;11.708;2023-03-23T05:54:55;95094.28;;;9.39;94.86
1832;BME280;1680;48.106;11.708;2023-03-23T05:57:22;95094.41;;;9.44;94.75
1832;BME280;1680;48.106;11.708;2023-03-23T05:59:49;95093.84;;;9.53;94.21
1832;BME280;1680;48.106;11.708;2023-03-23T06:02:17;95055.72;;;9.46;94.38
1832;BME280;1680;48.106;11.708;2023-03-23T06:04:44;95079.19;;;9.63;94.81
1832;BME280;1680;48.106;11.708;2023-03-23T06:07:14;95066.09;;;9.63;94.85
1832;BME280;1680;48.106;11.708;2023-03-23T06:09:42;95053.91;;;9.69;94.91
1832;BME280;1680;48.106;11.708;2023-03-23T06:12:10;95043.44;;;9.69;95.38
1832;BME280;1680;48.106;11.708;2023-03-23T06:14:37;95034.66;;;9.75;94.31
1832;BME280;1680;48.106;11.708;2023-03-23T06:17:05;95039.56;;;9.71;95.03
1832;BME280;1680;48.106;11.708;2023-03-23T06:19:33;95034.91;;;9.73;94.76
1832;BME280;1680;48.106;11.708;2023-03-23T06:22:00;95030.56;;;9.79;94.18
1832;BME280;1680;48.106;11.708;2023-03-23T06:24:27;95019.97;;;9.85;94.27
1832;BME280;1680;48.106;11.708;2023-03-23T06:26:55;95023.72;;;9.89;92.87
1832;BME280;1680;48.106;11.708;2023-03-23T06:29:23;95034.44;;;9.99;93.03
1832;BME280;1680;48.106;11.708;2023-03-23T06:31:52;95007.63;;;9.97;92.18
1832;BME280;1680;48.106;11.708;2023-03-23T06:34:21;95044.75;;;10.17;91.55
1832;BME280;1680;48.106;11.708;2023-03-23T06:36:48;95040.09;;;10.19;91.94
1832;BME280;1680;48.106;11.708;2023-03-23T06:39:15;95049.28;;;10.33;91.04
1832;BME280;1680;48.106;11.708;2023-03-23T06:41:43;95056.41;;;10.49;90.26
1832;BME280;1680;48.106;11.708;2023-03-23T06:44:10;95059.59;;;10.51;90.05
1832;BME280;1680;48.106;11.708;2023-03-23T06:46:40;95065.63;;;10.52;90.19
1832;BME280;1680;48.106;11.708;2023-03-23T06:49:08;95055.97;;;10.52;90.01
1832;BME280;1680;48.106;11.708;2023-03-23T06:51:36;95052.50;;;10.63;90.15
1832;BME280;1680;48.106;11.708;2023-03-23T06:54:04;95028.38;;;10.50;90.15
1832;BME280;1680;48.106;11.708;2023-03-23T06:56:31;95048.28;;;10.62;90.42
1832;BME280;1680;48.106;11.708;2023-03-23T06:58:59;95046.06;;;10.70;89.99
1832;BME280;1680;48.106;11.708;2023-03-23T07:01:26;95026.69;;;10.71;89.24
1832;BME280;1680;48.106;11.708;2023-03-23T07:03:55;95046.66;;;10.89;88.53
1832;BME280;1680;48.106;11.708;2023-03-23T07:06:24;95035.00;;;10.96;88.08
1832;BME280;1680;48.106;11.708;2023-03-23T07:08:51;95026.72;;;10.88;88.41
1832;BME280;1680;48.106;11.708;2023-03-23T07:11:19;95025.16;;;11.03;88.09
1832;BME280;1680;48.106;11.708;2023-03-23T07:13:46;95020.38;;;11.17;87.80
1832;BME280;1680;48.106;11.708;2023-03-23T07:16:15;95022.38;;;11.26;87.03
1832;BME280;1680;48.106;11.708;2023-03-23T07:18:43;95019.59;;;11.33;86.42
1832;BME280;1680;48.106;11.708;2023-03-23T07:21:12;95029.47;;;11.42;86.23
1832;BME280;1680;48.106;11.708;2023-03-23T07:23:39;95029.41;;;11.54;86.02
1832;BME280;1680;48.106;11.708;2023-03-23T07:26:07;95004.63;;;11.50;84.69
1832;BME280;1680;48.106;11.708;2023-03-23T07:28:34;95021.28;;;11.71;83.99
1832;BME280;1680;48.106;11.708;2023-03-23T07:31:01;95027.53;;;11.87;82.94
1832;BME280;1680;48.106;11.708;2023-03-23T07:33:28;95035.31;;;11.98;82.06
1832;BME280;1680;48.106;11.708;2023-03-23T07:35:58;95048.66;;;12.13;81.51
1832;BME280;1680;48.106;11.708;2023-03-23T07:38:27;95043.03;;;12.26;80.79
1832;BME280;1680;48.106;11.708;2023-03-23T07:40:55;95047.69;;;12.19;80.87
1832;BME280;1680;48.106;11.708;2023-03-23T07:43:23;95042.25;;;12.26;81.31
1832;BME280;1680;48.106;11.708;2023-03-23T07:45:51;95012.22;;;12.22;81.10
1832;BME280;1680;48.106;11.708;2023-03-23T07:48:19;95034.47;;;12.57;81.03
1832;BME280;1680;48.106;11.708;2023-03-23T07:50:46;95030.34;;;12.66;79.80
1832;BME280;1680;48.106;11.708;2023-03-23T07:53:13;95028.94;;;12.80;78.27
1832;BME280;1680;48.106;11.708;2023-03-23T07:55:42;95024.38;;;12.97;77.58
1832;BME280;1680;48.106;11.708;2023-03-23T07:58:09;95028.75;;;13.13;76.82
1832;BME280;1680;48.106;11.708;2023-03-23T08:00:37;94997.06;;;13.03;76.05
1832;BME280;1680;48.106;11.708;2023-03-23T08:03:05;95034.88;;;13.50;75.16
1832;BME280;1680;48.106;11.708;2023-03-23T08:05:33;95024.47;;;13.69;74.22
1832;BME280;1680;48.106;11.708;2023-03-23T08:08:00;95027.91;;;14.11;72.35
1832;BME280;1680;48.106;11.708;2023-03-23T08:10:28;95024.84;;;14.29;72.10
1832;BME280;1680;48.106;11.708;2023-03-23T08:12:57;95024.44;;;14.62;70.27
1832;BME280;1680;48.106;11.708;2023-03-23T08:15:24;95019.50;;;14.85;68.69
1832;BME280;1680;48.106;11.708;2023-03-23T08:17:52;95017.16;;;14.89;70.67
1832;BME280;1680;48.106;11.708;2023-03-23T08:20:20;95019.81;;;15.24;71.36
1832;BME280;1680;48.106;11.708;2023-03-23T08:22:53;95023.06;;;15.51;69.65
1832;BME280;1680;48.106;11.708;2023-03-23T08:25:21;95012.22;;;15.27;65.18
1832;BME280;1680;48.106;11.708;2023-03-23T08:27:49;95020.41;;;15.46;65.64
1832;BME280;1680;48.106;11.708;2023-03-23T08:30:19;95025.69;;;15.36;65.08
1832;BME280;1680;48.106;11.708;2023-03-23T08:32:51;95032.78;;;15.20;65.01
1832;BME280;1680;48.106;11.708;2023-03-23T08:35:19;95031.97;;;15.15;64.67
1832;BME280;1680;48.106;11.708;2023-03-23T08:37:47;95036.47;;;15.09;64.48
1832;BME280;1680;48.106;11.708;2023-03-23T08:40:17;95028.22;;;14.96;64.85
1832;BME280;1680;48.106;11.708;2023-03-23T08:42:46;95036.44;;;15.14;64.55
1832;BME280;1680;48.106;11.708;2023-03-23T08:45:15;95032.50;;;15.12;64.91
1832;BME280;1680;48.106;11.708;2023-03-23T08:47:45;95016.91;;;15.10;64.01
1832;BME280;1680;48.106;11.708;2023-03-23T08:50:16;95028.81;;;15.23;64.76
1832;BME280;1680;48.106;11.708;2023-03-23T08:52:43;95034.13;;;15.38;64.83
1832;BME280;1680;48.106;11.708;2023-03-23T08:55:11;95010.31;;;15.23;64.12
1832;BME280;1680;48.106;11.708;2023-03-23T08:57:38;95024.34;;;15.48;63.86
1832;BME280;1680;48.106;11.708;2023-03-23T09:00:10;95030.44;;;15.63;63.36
1832;BME280;1680;48.106;11.708;2023-03-23T09:02:45;95034.66;;;15.79;62.09
1832;BME280;1680;48.106;11.708;2023-03-23T09:05:14;95028.84;;;15.92;62.30
1832;BME280;1680;48.106;11.708;2023-03-23T09:07:43;95034.13;;;15.87;61.65
1832;BME280;1680;48.106;11.708;2023-03-23T09:10:11;95031.47;;;15.92;62.56
1832;BME280;1680;48.106;11.708;2023-03-23T09:12:39;95035.66;;;16.13;61.50
1832;BME280;1680;48.106;11.708;2023-03-23T09:15:08;95044.66;;;16.12;61.86
1832;BME280;1680;48.106;11.708;2023-03-23T09:17:38;95050.72;;;16.23;62.75
1832;BME280;1680;48.106;11.708;2023-03-23T09:20:09;95061.00;;;16.54;61.99
1832;BME280;1680;48.106;11.708;2023-03-23T09:22:38;95076.84;;;16.64;58.80
1832;BME280;1680;48.106;11.708;2023-03-23T09:25:06;95078.59;;;16.83;57.83
1832;BME280;1680;48.106;11.708;2023-03-23T09:27:34;95070.91;;;16.87;56.33
1832;BME280;1680;48.106;11.708;2023-03-23T09:30:02;95082.06;;;16.84;55.85
1832;BME280;1680;48.106;11.708;2023-03-23T09:32:32;95083.56;;;17.00;55.10
1832;BME280;1680;48.106;11.708;2023-03-23T09:35:00;95089.38;;;17.02;54.14
1832;BME280;1680;48.106;11.708;2023-03-23T09:37:29;95093.88;;;17.01;54.57
1832;BME280;1680;48.106;11.708;2023-03-23T09:39:56;95096.75;;;17.10;54.24
1832;BME280;1680;48.106;11.708;2023-03-23T09:45:37;95071.25;;;17.24;51.76
1832;BME280;1680;48.106;11.708;2023-03-23T09:48:24;95091.41;;;17.30;51.78
1832;BME280;1680;48.106;11.708;2023-03-23T09:50:59;95085.44;;;17.48;53.16
1832;BME280;1680;48.106;11.708;2023-03-23T09:53:32;95086.84;;;17.73;51.31
1832;BME280;1680;48.106;11.708;2023-03-23T09:56:09;95088.78;;;17.63;52.38
1832;BME280;1680;48.106;11.708;2023-03-23T09:58:45;95090.47;;;17.87;51.96
1832;BME280;1680;48.106;11.708;2023-03-23T10:01:17;95086.63;;;17.98;51.75
1832;BME280;1680;48.106;11.708;2023-03-23T10:03:46;95081.00;;;18.05;49.96
1832;BME280;1680;48.106;11.708;2023-03-23T10:06:16;95090.22;;;18.12;51.01
1832;BME280;1680;48.106;11.708;2023-03-23T10:08:47;95073.44;;;18.50;48.97
1832;BME280;1680;48.106;11.708;2023-03-23T10:11:26;95072.28;;;18.56;47.58
1832;BME280;1680;48.106;11.708;2023-03-23T10:14:07;95078.75;;;18.50;47.04
1832;BME280;1680;48.106;11.708;2023-03-23T10:16:40;95083.25;;;18.73;46.93
1832;BME280;1680;48.106;11.708;2023-03-23T10:19:11;95080.72;;;18.63;46.78
1832;BME280;1680;48.106;11.708;2023-03-23T10:21:43;95090.69;;;18.76;45.24
1832;BME280;1680;48.106;11.708;2023-03-23T10:24:15;95085.91;;;18.73;46.58
1832;BME280;1680;48.106;11.708;2023-03-23T10:26:56;95095.19;;;18.75;45.07
1832;BME280;1680;48.106;11.708;2023-03-23T10:29:29;95085.91;;;18.73;45.87
1832;BME280;1680;48.106;11.708;2023-03-23T10:32:00;95106.16;;;18.69;44.87
1832;BME280;1680;48.106;11.708;2023-03-23T10:34:32;95101.63;;;18.46;44.81
1832;BME280;1680;48.106;11.708;2023-03-23T10:37:04;95104.47;;;18.26;45.62
1832;BME280;1680;48.106;11.708;2023-03-23T10:39:42;95096.91;;;18.10;45.99
1832;BME280;1680;48.106;11.708;2023-03-23T10:42:11;95098.38;;;18.21;45.30
1832;BME280;1680;48.106;11.708;2023-03-23T10:44:38;95096.75;;;17.96;47.39
1832;BME280;1680;48.106;11.708;2023-03-23T10:47:07;95096.41;;;18.03;47.15
1832;BME280;1680;48.106;11.708;2023-03-23T10:49:38;95100.22;;;18.25;47.38
1832;BME280;1680;48.106;11.708;2023-03-23T10:52:15;95098.19;;;18.12;45.86
1832;BME280;1680;48.106;11.708;2023-03-23T10:54:51;95099.91;;;17.98;47.04
1832;BME280;1680;48.106;11.708;2023-03-23T10:57:24;95096.91;;;18.10;47.62
1832;BME280;1680;48.106;11.708;2023-03-23T10:59:58;95096.50;;;17.93;48.42
1832;BME280;1680;48.106;11.708;2023-03-23T11:02:27;95093.03;;;17.97;49.41
1832;BME280;1680;48.106;11.708;2023-03-23T11:05:00;95090.97;;;17.89;49.99
1832;BME280;1680;48.106;11.708;2023-03-23T11:07:31;95098.88;;;17.94;49.05
1832;BME280;1680;48.106;11.708;2023-03-23T11:10:07;95093.41;;;18.14;49.15
1832;BME280;1680;48.106;11.708;2023-03-23T11:12:35;95092.66;;;18.09;50.01
1832;BME280;1680;48.106;11.708;2023-03-23T11:15:21;95100.09;;;18.07;49.84
1832;BME280;1680;48.106;11.708;2023-03-23T11:17:55;95097.66;;;18.15;49.89
1832;BME280;1680;48.106;11.708;2023-03-23T11:20:24;95092.00;;;18.27;49.56
1832;BME280;1680;48.106;11.708;2023-03-23T11:22:52;95103.75;;;18.44;49.94
1832;BME280;1680;48.106;11.708;2023-03-23T11:25:21;95106.25;;;18.59;48.44
1832;BME280;1680;48.106;11.708;2023-03-23T11:27:50;95102.13;;;18.48;49.11
1832;BME280;1680;48.106;11.708;2023-03-23T11:30:23;95076.88;;;18.51;49.40
1832;BME280;1680;48.106;11.708;2023-03-23T11:32:54;95089.66;;;18.72;49.47
1832;BME280;1680;48.106;11.708;2023-03-23T11:35:25;95089.81;;;19.04;49.29
1832;BME280;1680;48.106;11.708;2023-03-23T11:37:55;95087.34;;;19.12;46.93
1832;BME280;1680;48.106;11.708;2023-03-23T11:40:25;95080.44;;;19.30;47.42
1832;BME280;1680;48.106;11.708;2023-03-23T11:42:58;95080.03;;;19.23;45.89
1832;BME280;1680;48.106;11.708;2023-03-23T11:45:33;95076.22;;;19.47;44.16
1832;BME280;1680;48.106;11.708;2023-03-23T11:48:13;95078.00;;;19.33;42.93
1832;BME280;1680;48.106;11.708;2023-03-23T11:50:49;95084.09;;;19.52;42.69
1832;BME280;1680;48.106;11.708;2023-03-23T11:53:25;95072.22;;;19.81;42.80
1832;BME280;1680;48.106;11.708;2023-03-23T11:56:07;95078.69;;;19.75;41.95
1832;BME280;1680;48.106;11.708;2023-03-23T11:58:36;95073.81;;;19.82;41.49
1832;BME280;1680;48.106;11.708;2023-03-23T12:01:09;95066.97;;;19.76;41.34
1832;BME280;1680;48.106;11.708;2023-03-23T12:04:03;95066.06;;;19.49;41.37
1832;BME280;1680;48.106;11.708;2023-03-23T12:06:42;95076.78;;;19.62;40.78
1832;BME280;1680;48.106;11.708;2023-03-23T12:09:31;95075.63;;;19.68;41.34
1832;BME280;1680;48.106;11.708;2023-03-23T12:12:12;95070.41;;;19.95;40.87
1832;BME280;1680;48.106;11.708;2023-03-23T12:14:50;95061.25;;;20.01;41.06
1832;BME280;1680;48.106;11.708;2023-03-23T12:17:30;95066.41;;;19.79;40.48
1832;BME280;1680;48.106;11.708;2023-03-23T12:20:18;95064.38;;;19.90;41.55
1832;BME280;1680;48.106;11.708;2023-03-23T12:22:58;95068.03;;;20.12;39.64
1832;BME280;1680;48.106;11.708;2023-03-23T12:25:51;95059.09;;;20.03;38.86
1832;BME280;1680;48.106;11.708;2023-03-23T12:28:32;95055.88;;;20.06;39.26
1832;BME280;1680;48.106;11.708;2023-03-23T12:31:06;95041.22;;;20.22;41.12
1832;BME280;1680;48.106;11.708;2023-03-23T12:33:45;95050.97;;;20.27;38.01
1832;BME280;1680;48.106;11.708;2023-03-23T12:36:26;95049.13;;;20.41;42.42
1832;BME280;1680;48.106;11.708;2023-03-23T12:39:08;95041.44;;;20.39;41.95
1832;BME280;1680;48.106;11.708;2023-03-23T12:41:42;95055.91;;;20.33;39.18
1832;BME280;1680;48.106;11.708;2023-03-23T12:44:20;95050.19;;;20.26;37.73
1832;BME280;1680;48.106;11.708;2023-03-23T12:47:03;95054.97;;;19.97;37.39
1832;BME280;1680;48.106;11.708;2023-03-23T12:49:36;95053.78;;;20.03;37.39
1832;BME280;1680;48.106;11.708;2023-03-23T12:52:12;95047.47;;;19.99;38.11
1832;BME280;1680;48.106;11.708;2023-03-23T12:54:44;95032.44;;;19.90;38.07
1832;BME280;1680;48.106;11.708;2023-03-23T12:57:20;95030.91;;;20.02;38.00
1832;BME280;1680;48.106;11.708;2023-03-23T13:00:04;95039.00;;;20.11;38.26
1832;BME280;1680;48.106;11.708;2023-03-23T13:02:40;95039.94;;;20.20;37.30
1832;BME280;1680;48.106;11.708;2023-03-23T13:05:13;95035.69;;;20.19;37.44
1832;BME280;1680;48.106;11.708;2023-03-23T13:07:44;95030.91;;;20.02;38.97
1832;BME280;1680;48.106;11.708;2023-03-23T13:10:19;95035.06;;;20.08;37.85
1832;BME280;1680;48.106;11.708;2023-03-23T13:12:48;95031.56;;;19.94;38.33
1832;BME280;1680;48.106;11.708;2023-03-23T13:15:26;95028.66;;;20.09;37.27
1832;BME280;1680;48.106;11.708;2023-03-23T13:18:02;95037.22;;;20.06;37.12
1832;BME280;1680;48.106;11.708;2023-03-23T13:20:54;95030.13;;;20.15;37.54
1832;BME280;1680;48.106;11.708;2023-03-23T13:23:26;94997.84;;;19.71;37.36
1832;BME280;1680;48.106;11.708;2023-03-23T13:25:58;95024.47;;;19.71;36.65
1832;BME280;1680;48.106;11.708;2023-03-23T13:28:28;95020.84;;;19.49;36.34
1832;BME280;1680;48.106;11.708;2023-03-23T13:31:00;95020.22;;;19.39;36.65
1832;BME280;1680;48.106;11.708;2023-03-23T13:33:32;95024.53;;;19.35;36.60
1832;BME280;1680;48.106;11.708;2023-03-23T13:36:08;95019.50;;;19.15;37.05
1832;BME280;1680;48.106;11.708;2023-03-23T13:38:36;95018.34;;;19.21;38.36
1832;BME280;1680;48.106;11.708;2023-03-23T13:41:09;94975.81;;;19.21;37.46
1832;BME280;1680;48.106;11.708;2023-03-23T13:43:39;95011.50;;;19.52;37.00